Time;durP1;ratioP1;P1;durP2;ratioP2;P2;SDS_P1;SDS_P2;PMS_P1;PMS_P2;Temp;Humidity;BMP_temperature;BMP_pressure;BME280_temperature;BME280_humidity;BME280_pressure;Samples;Min_cycle;Max_cycle;Signal;HPM_P1;HPM_P2
2021/12/13 00:01:29;;;;;;;11.23;7.77;;;4.30;77.70;;;;;;5025320;28;20236;-68
2021/12/13 00:04:10;;;;;;;9.30;6.87;;;4.30;77.60;;;;;;5024323;28;20624;-68
2021/12/13 00:06:48;;;;;;;9.47;7.50;;;4.30;77.60;;;;;;5023338;28;20550;-68
2021/12/13 00:09:20;;;;;;;9.43;6.93;;;4.30;77.60;;;;;;5043586;28;20291;-68
2021/12/13 00:11:53;;;;;;;10.20;7.57;;;4.30;77.60;;;;;;5044789;28;20238;-68
2021/12/13 00:14:23;;;;;;;12.83;8.27;;;4.30;77.50;;;;;;5046594;28;20234;-68
2021/12/13 00:17:00;;;;;;;10.53;8.03;;;4.40;77.50;;;;;;5027308;28;20654;-68
2021/12/13 00:19:42;;;;;;;9.63;6.77;;;4.40;77.40;;;;;;5037915;28;20553;-68
2021/12/13 00:22:23;;;;;;;13.70;7.30;;;4.40;77.30;;;;;;4983698;28;20333;-68
2021/12/13 00:24:53;;;;;;;11.57;7.80;;;4.30;77.10;;;;;;5023764;28;20216;-68
2021/12/13 00:27:25;;;;;;;11.43;7.70;;;4.30;77.10;;;;;;5044059;28;20211;-68
2021/12/13 00:29:58;;;;;;;10.07;7.10;;;4.30;77.00;;;;;;5034295;28;20220;-68
2021/12/13 00:32:39;;;;;;;12.60;7.00;;;4.30;76.90;;;;;;5043332;28;20656;-68
2021/12/13 00:35:12;;;;;;;11.37;7.67;;;4.30;76.80;;;;;;5026547;28;20215;-68
2021/12/13 00:37:47;;;;;;;13.13;7.67;;;4.30;76.70;;;;;;5039677;28;20227;-68
2021/12/13 00:40:25;;;;;;;10.20;7.43;;;4.30;76.80;;;;;;5042985;28;20261;-68
2021/12/13 00:43:35;;;;;;;9.53;6.90;;;4.30;76.80;;;;;;5043598;28;20245;-68
2021/12/13 00:46:09;;;;;;;11.80;8.30;;;4.30;76.90;;;;;;5031469;28;20221;-68
2021/12/13 00:48:39;;;;;;;11.00;8.47;;;4.30;76.80;;;;;;5040233;28;20244;-69
2021/12/13 00:51:07;;;;;;;12.70;9.33;;;4.30;76.90;;;;;;5046405;28;20203;-68
2021/12/13 00:53:37;;;;;;;12.33;8.50;;;4.30;77.00;;;;;;5043120;28;20304;-68
2021/12/13 00:56:43;;;;;;;12.67;9.03;;;4.30;77.10;;;;;;5043249;28;20638;-68
2021/12/13 00:59:18;;;;;;;12.87;9.40;;;4.30;77.30;;;;;;5036016;28;20199;-68
2021/12/13 01:01:56;;;;;;;13.87;9.40;;;4.20;77.30;;;;;;5035656;28;20251;-68
2021/12/13 01:04:46;;;;;;;12.23;9.17;;;4.20;77.30;;;;;;5022446;28;20213;-68
2021/12/13 01:07:32;;;;;;;14.93;10.00;;;4.20;77.40;;;;;;5007649;28;20208;-68
2021/12/13 01:09:59;;;;;;;15.57;10.23;;;4.10;77.50;;;;;;5027684;28;20720;-68
2021/12/13 01:12:27;;;;;;;13.17;9.90;;;4.10;77.60;;;;;;5032386;28;20219;-68
2021/12/13 01:15:09;;;;;;;12.37;9.33;;;4.10;77.80;;;;;;5022930;28;20214;-68
2021/12/13 01:18:33;;;;;;;15.57;10.50;;;4.10;77.90;;;;;;5024703;28;20306;-68
2021/12/13 01:23:47;;;;;;;12.50;9.43;;;4.00;78.10;;;;;;5012440;28;20238;-68
2021/12/13 01:26:38;;;;;;;12.60;10.30;;;4.00;78.20;;;;;;5042299;28;20221;-68
2021/12/13 01:29:14;;;;;;;14.90;9.67;;;4.00;78.40;;;;;;5039263;28;20207;-68
2021/12/13 01:31:50;;;;;;;11.60;8.60;;;4.00;78.50;;;;;;5021428;28;20701;-68
2021/12/13 01:34:18;;;;;;;12.40;9.20;;;4.00;78.50;;;;;;5046514;28;20231;-68
2021/12/13 01:37:01;;;;;;;13.97;9.90;;;4.00;78.60;;;;;;5027917;28;20752;-68
2021/12/13 01:39:32;;;;;;;14.00;8.80;;;4.00;78.60;;;;;;5035867;28;20208;-68
2021/12/13 01:42:05;;;;;;;16.83;9.50;;;4.00;78.50;;;;;;5047223;28;20569;-68
2021/12/13 01:44:42;;;;;;;10.67;8.97;;;4.00;78.60;;;;;;5046034;28;20211;-68
2021/12/13 01:47:16;;;;;;;13.60;9.37;;;4.00;78.80;;;;;;5049511;28;20207;-69
2021/12/13 01:49:47;;;;;;;13.60;9.47;;;3.90;78.80;;;;;;5047590;28;20797;-69
2021/12/13 01:52:17;;;;;;;14.13;9.77;;;3.90;78.90;;;;;;5045859;28;20218;-69
2021/12/13 01:54:45;;;;;;;14.37;10.50;;;3.90;78.90;;;;;;5048076;28;20207;-69
2021/12/13 01:59:56;;;;;;;14.17;10.03;;;3.90;79.20;;;;;;5038439;28;20237;-69
2021/12/13 02:02:28;;;;;;;14.57;9.50;;;3.80;79.10;;;;;;5043159;28;20232;-68
2021/12/13 02:05:18;;;;;;;15.17;10.43;;;3.80;79.20;;;;;;5045838;28;20307;-68
2021/12/13 02:07:45;;;;;;;13.93;9.70;;;3.80;79.20;;;;;;5045602;28;20662;-68
2021/12/13 02:10:41;;;;;;;14.40;9.67;;;3.70;79.10;;;;;;5047249;28;20203;-68
2021/12/13 02:13:15;;;;;;;16.10;10.03;;;3.80;79.20;;;;;;5027165;28;20232;-68
2021/12/13 02:18:38;;;;;;;12.93;9.37;;;3.70;78.90;;;;;;5046355;28;20212;-68
2021/12/13 02:21:24;;;;;;;13.43;9.27;;;3.70;78.80;;;;;;5043289;28;20229;-68
2021/12/13 02:23:54;;;;;;;14.17;9.27;;;3.70;78.90;;;;;;5028253;28;20292;-68
2021/12/13 02:26:25;;;;;;;14.93;9.73;;;3.70;78.80;;;;;;5044941;28;20301;-68
2021/12/13 02:29:03;;;;;;;13.03;9.57;;;3.70;78.90;;;;;;5024535;28;20216;-68
2021/12/13 02:31:34;;;;;;;14.00;10.27;;;3.70;78.80;;;;;;5036354;28;20322;-68
2021/12/13 02:34:06;;;;;;;11.60;9.50;;;3.60;78.70;;;;;;5042239;28;20651;-68
2021/12/13 02:36:49;;;;;;;15.37;9.43;;;3.60;78.80;;;;;;5042881;28;20205;-68
2021/12/13 02:39:22;;;;;;;16.87;9.93;;;3.60;79.10;;;;;;5042813;28;20306;-68
2021/12/13 02:41:50;;;;;;;12.13;9.80;;;3.60;79.30;;;;;;5029988;28;20280;-68
2021/12/13 02:44:25;;;;;;;17.97;10.27;;;3.50;79.20;;;;;;5049091;28;20693;-68
2021/12/13 02:46:59;;;;;;;14.30;10.77;;;3.50;79.20;;;;;;5022160;28;20602;-68
2021/12/13 02:49:27;;;;;;;13.93;10.73;;;3.40;79.30;;;;;;5027719;28;20210;-68
2021/12/13 02:51:59;;;;;;;13.77;10.13;;;3.40;79.50;;;;;;5023826;28;20216;-68
2021/12/13 02:54:36;;;;;;;14.33;9.73;;;3.40;79.30;;;;;;5028723;28;20277;-68
2021/12/13 02:57:26;;;;;;;14.40;10.93;;;3.40;79.30;;;;;;5024981;28;20233;-68
2021/12/13 03:00:14;;;;;;;16.07;10.13;;;3.40;79.30;;;;;;5041523;28;20215;-68
2021/12/13 03:02:44;;;;;;;14.67;9.80;;;3.40;79.30;;;;;;5044527;28;20721;-68
2021/12/13 03:05:19;;;;;;;15.67;10.50;;;3.30;79.30;;;;;;5024801;28;20219;-68
2021/12/13 03:07:50;;;;;;;16.70;10.57;;;3.30;79.80;;;;;;5042090;28;20290;-68
2021/12/13 03:10:30;;;;;;;14.70;10.13;;;3.20;80.00;;;;;;5046242;28;20287;-68
2021/12/13 03:12:57;;;;;;;15.47;9.60;;;3.20;80.40;;;;;;5041635;28;20306;-68
2021/12/13 03:15:28;;;;;;;13.57;9.83;;;3.10;80.60;;;;;;5027820;28;20558;-68
2021/12/13 03:17:58;;;;;;;13.03;9.90;;;3.10;80.80;;;;;;5042849;28;20555;-68
2021/12/13 03:20:28;;;;;;;13.83;9.33;;;3.10;80.80;;;;;;5038167;28;20307;-68
2021/12/13 03:23:21;;;;;;;14.03;9.03;;;3.00;81.00;;;;;;5037619;28;20671;-68
2021/12/13 03:26:34;;;;;;;13.60;9.93;;;3.00;81.30;;;;;;5024967;28;20222;-68
2021/12/13 03:29:13;;;;;;;15.23;9.93;;;2.90;81.40;;;;;;5014889;28;20209;-68
2021/12/13 03:31:45;;;;;;;15.07;10.33;;;2.90;81.60;;;;;;5029789;28;20633;-68
2021/12/13 03:34:23;;;;;;;14.47;10.30;;;2.80;81.70;;;;;;5047711;28;20214;-68
2021/12/13 03:36:50;;;;;;;13.43;10.20;;;2.80;81.80;;;;;;5036297;28;20297;-68
2021/12/13 03:39:31;;;;;;;13.73;10.00;;;2.70;81.80;;;;;;5047979;28;20211;-68
2021/12/13 03:42:02;;;;;;;13.27;10.37;;;2.70;82.00;;;;;;5025414;28;20238;-68
2021/12/13 03:44:37;;;;;;;11.97;9.60;;;2.70;82.10;;;;;;5045220;28;20213;-68
2021/12/13 03:47:21;;;;;;;14.97;10.43;;;2.60;81.60;;;;;;5040330;28;20299;-68
2021/12/13 03:49:54;;;;;;;13.83;9.80;;;2.60;81.20;;;;;;5040562;28;20222;-68
2021/12/13 03:52:27;;;;;;;13.23;9.80;;;2.50;81.40;;;;;;5043450;28;20211;-68
2021/12/13 03:54:59;;;;;;;11.93;9.20;;;2.40;81.90;;;;;;5042247;28;20206;-68
2021/12/13 03:57:28;;;;;;;11.73;9.47;;;2.40;82.30;;;;;;5037361;28;20654;-68
2021/12/13 03:59:58;;;;;;;11.37;9.43;;;2.50;82.60;;;;;;5044407;28;20239;-68
2021/12/13 04:02:33;;;;;;;13.13;9.53;;;2.50;82.70;;;;;;5045669;28;20221;-68
2021/12/13 04:05:10;;;;;;;13.90;9.60;;;2.60;82.60;;;;;;5027518;28;20661;-68
2021/12/13 04:07:44;;;;;;;10.03;8.37;;;2.60;82.40;;;;;;5024811;28;20674;-68
2021/12/13 04:10:33;;;;;;;12.77;9.37;;;2.60;82.40;;;;;;5036912;28;20210;-68
2021/12/13 04:13:10;;;;;;;11.97;8.10;;;2.70;81.90;;;;;;5043080;28;20202;-68
2021/12/13 04:19:20;;;;;;;13.53;9.00;;;2.70;81.40;;;;;;5046154;28;20658;-68
2021/12/13 04:21:38;;;;;;;13.93;8.50;;;2.70;81.60;;;;;;5034286;28;20301;-68
2021/12/13 04:24:09;;;;;;;14.77;9.10;;;2.70;81.70;;;;;;5039759;28;20233;-68
2021/12/13 04:26:44;;;;;;;13.83;8.93;;;2.70;81.60;;;;;;5045444;28;20211;-68
2021/12/13 04:29:21;;;;;;;10.23;7.87;;;2.70;81.70;;;;;;5032772;28;20228;-68
2021/12/13 04:31:50;;;;;;;11.20;8.37;;;2.80;81.70;;;;;;5033164;28;20232;-68
2021/12/13 04:34:21;;;;;;;12.20;8.47;;;2.80;81.60;;;;;;5031048;28;20223;-68
2021/12/13 04:37:21;;;;;;;11.10;8.33;;;2.80;81.50;;;;;;5043471;28;20654;-68
2021/12/13 04:39:58;;;;;;;13.73;8.07;;;2.80;81.40;;;;;;5049116;28;20306;-68
2021/12/13 04:42:29;;;;;;;10.93;7.53;;;2.80;81.30;;;;;;5029871;28;20230;-68
2021/12/13 04:45:11;;;;;;;13.10;7.97;;;2.80;81.10;;;;;;5047373;28;20583;-68
2021/12/13 04:47:47;;;;;;;9.87;7.60;;;2.80;80.80;;;;;;5041404;28;20218;-68
2021/12/13 04:50:20;;;;;;;9.23;7.23;;;2.80;80.80;;;;;;5049919;28;20245;-68
2021/12/13 04:52:48;;;;;;;8.97;7.73;;;2.80;80.80;;;;;;5053025;28;20609;-68
2021/12/13 04:55:20;;;;;;;10.13;8.20;;;2.80;80.60;;;;;;5048359;28;20249;-68
2021/12/13 04:57:50;;;;;;;12.67;7.90;;;2.80;80.90;;;;;;5043402;28;20252;-68
2021/12/13 05:00:25;;;;;;;10.73;7.73;;;2.80;80.50;;;;;;5017421;28;20294;-68
2021/12/13 05:02:58;;;;;;;12.90;8.73;;;2.80;80.60;;;;;;5045814;28;20247;-68
2021/12/13 05:05:27;;;;;;;11.30;8.23;;;2.80;80.20;;;;;;4991162;28;20215;-68
2021/12/13 05:07:56;;;;;;;13.07;8.70;;;2.70;80.00;;;;;;5044062;28;20295;-68
2021/12/13 05:10:25;;;;;;;11.03;8.70;;;2.70;80.00;;;;;;5018760;28;20218;-68
2021/12/13 05:13:10;;;;;;;12.20;7.70;;;2.70;80.20;;;;;;5024372;28;20214;-68
2021/12/13 05:15:41;;;;;;;8.83;7.47;;;2.70;80.50;;;;;;5028521;28;20372;-67
2021/12/13 05:18:26;;;;;;;11.30;7.73;;;2.70;80.70;;;;;;5031399;28;20218;-67
2021/12/13 05:21:08;;;;;;;9.13;6.73;;;2.60;80.80;;;;;;5039949;28;20211;-67
2021/12/13 05:23:51;;;;;;;9.43;8.40;;;2.60;80.90;;;;;;5042042;28;20236;-67
2021/12/13 05:26:34;;;;;;;12.30;7.93;;;2.60;80.90;;;;;;5049514;28;20217;-67
2021/12/13 05:29:05;;;;;;;9.07;7.70;;;2.50;80.90;;;;;;5048244;28;20293;-67
2021/12/13 05:31:33;;;;;;;10.77;7.83;;;2.50;81.00;;;;;;5052827;28;20309;-67
2021/12/13 05:34:04;;;;;;;11.83;8.00;;;2.50;81.20;;;;;;5056062;28;20226;-68
2021/12/13 05:36:35;;;;;;;11.40;7.70;;;2.50;81.40;;;;;;5034491;28;20211;-68
2021/12/13 05:39:16;;;;;;;12.27;8.27;;;2.50;81.40;;;;;;5046349;28;20217;-68
2021/12/13 05:42:04;;;;;;;11.30;7.73;;;2.40;81.50;;;;;;5051381;28;20313;-67
2021/12/13 05:44:35;;;;;;;13.07;8.63;;;2.50;81.30;;;;;;5035406;28;20322;-68
2021/12/13 05:47:16;;;;;;;12.67;7.90;;;2.40;81.20;;;;;;5037372;28;20215;-68
2021/12/13 05:49:45;;;;;;;11.23;8.20;;;2.40;81.20;;;;;;5027179;28;20219;-68
2021/12/13 05:52:16;;;;;;;9.33;7.70;;;2.40;81.40;;;;;;5041133;28;20220;-68
2021/12/13 05:54:47;;;;;;;10.37;7.47;;;2.40;81.40;;;;;;5021103;28;20249;-68
2021/12/13 05:57:17;;;;;;;10.17;7.67;;;2.50;81.50;;;;;;5015197;28;20218;-68
2021/12/13 06:00:11;;;;;;;8.63;6.77;;;2.50;81.50;;;;;;5043845;28;20219;-68
2021/12/13 06:02:47;;;;;;;9.83;7.40;;;2.50;81.40;;;;;;5049084;28;20702;-68
2021/12/13 06:05:19;;;;;;;11.20;7.60;;;2.50;81.30;;;;;;5019204;28;20280;-68
2021/12/13 06:07:54;;;;;;;9.30;6.87;;;2.50;81.30;;;;;;5032789;28;20207;-68
2021/12/13 06:10:27;;;;;;;10.67;7.20;;;2.50;81.20;;;;;;5047318;28;20222;-68
2021/12/13 06:12:58;;;;;;;8.57;6.87;;;2.50;81.10;;;;;;5034967;28;20670;-68
2021/12/13 06:15:31;;;;;;;9.50;7.10;;;2.50;81.00;;;;;;5025217;28;20270;-68
2021/12/13 06:18:12;;;;;;;11.50;7.50;;;2.40;80.90;;;;;;5042330;28;20288;-68
2021/12/13 06:21:12;;;;;;;11.17;7.37;;;2.40;81.10;;;;;;5046087;28;20221;-68
2021/12/13 06:23:40;;;;;;;10.50;7.30;;;2.50;81.10;;;;;;5046498;28;20234;-68
2021/12/13 06:26:12;;;;;;;10.50;7.43;;;2.50;81.10;;;;;;5037402;28;20237;-68
2021/12/13 06:28:45;;;;;;;12.47;8.23;;;2.40;81.00;;;;;;5043952;28;20219;-68
2021/12/13 06:31:18;;;;;;;11.67;8.07;;;2.50;81.00;;;;;;5045236;28;20246;-68
2021/12/13 06:33:59;;;;;;;13.13;8.33;;;2.50;81.00;;;;;;5030943;28;20211;-68
2021/12/13 06:36:27;;;;;;;10.70;7.97;;;2.50;81.10;;;;;;5018887;28;20235;-68
2021/12/13 06:39:16;;;;;;;10.57;8.50;;;2.50;81.00;;;;;;5048823;28;20310;-68
2021/12/13 06:41:58;;;;;;;10.63;7.63;;;2.50;81.10;;;;;;5012801;28;20245;-68
2021/12/13 06:44:45;;;;;;;11.67;7.50;;;2.50;81.80;;;;;;5039722;28;20238;-68
2021/12/13 06:47:18;;;;;;;15.87;8.67;;;2.50;81.30;;;;;;5037367;28;20242;-68
2021/12/13 06:49:57;;;;;;;14.23;9.07;;;2.50;81.50;;;;;;5042855;28;20217;-68
2021/12/13 06:52:32;;;;;;;18.90;8.70;;;2.50;81.60;;;;;;5024496;28;20214;-68
2021/12/13 06:55:07;;;;;;;13.57;8.87;;;2.60;81.70;;;;;;5050334;28;20216;-68
2021/12/13 06:57:46;;;;;;;15.83;8.40;;;2.60;81.70;;;;;;5051840;28;20678;-68
2021/12/13 07:00:26;;;;;;;11.67;7.60;;;2.60;81.70;;;;;;5048271;28;20215;-68
2021/12/13 07:02:56;;;;;;;17.90;8.57;;;2.60;81.70;;;;;;5042119;28;20237;-68
2021/12/13 07:05:46;;;;;;;12.30;8.33;;;2.60;81.80;;;;;;5030150;28;20252;-68
2021/12/13 07:08:27;;;;;;;14.33;8.17;;;2.70;81.90;;;;;;5040436;28;20227;-68
2021/12/13 07:10:56;;;;;;;14.37;8.23;;;2.70;81.90;;;;;;5042776;28;20584;-68
2021/12/13 07:13:37;;;;;;;12.67;8.70;;;2.70;81.90;;;;;;5030830;28;20219;-68
2021/12/13 07:16:07;;;;;;;21.10;8.53;;;2.70;82.10;;;;;;5040092;28;20238;-68
2021/12/13 07:18:40;;;;;;;16.10;9.20;;;2.70;82.20;;;;;;5033732;28;20254;-68
2021/12/13 07:21:12;;;;;;;17.17;9.43;;;2.70;82.50;;;;;;5046154;28;20218;-68
2021/12/13 07:24:05;;;;;;;18.20;9.73;;;2.70;82.70;;;;;;5030614;28;20326;-68
2021/12/13 07:26:58;;;;;;;14.93;8.93;;;2.70;83.00;;;;;;5035390;28;20207;-68
2021/12/13 07:29:39;;;;;;;17.97;9.23;;;2.70;83.10;;;;;;5038222;28;20302;-69
2021/12/13 07:32:27;;;;;;;17.57;10.27;;;2.70;83.10;;;;;;5042372;28;20249;-68
2021/12/13 07:35:08;;;;;;;20.43;9.67;;;2.70;83.10;;;;;;5028351;28;20242;-68
2021/12/13 07:37:41;;;;;;;18.53;10.07;;;2.80;82.90;;;;;;5029277;28;20222;-68
2021/12/13 07:40:27;;;;;;;19.70;10.30;;;2.80;83.10;;;;;;5041849;28;20222;-68
2021/12/13 07:42:56;;;;;;;19.37;10.87;;;2.80;83.30;;;;;;5044883;28;20212;-68
2021/12/13 07:45:51;;;;;;;24.67;12.50;;;2.80;83.30;;;;;;5049794;28;20252;-68
2021/12/13 07:48:22;;;;;;;23.07;11.30;;;2.90;83.10;;;;;;5042930;28;20225;-68
2021/12/13 07:51:07;;;;;;;28.50;12.93;;;2.90;83.00;;;;;;5045625;28;20738;-68
2021/12/13 07:53:40;;;;;;;24.37;13.27;;;3.10;83.00;;;;;;5028014;28;20263;-68
2021/12/13 07:56:10;;;;;;;24.53;12.67;;;3.20;82.70;;;;;;5041710;28;20226;-68
2021/12/13 07:58:47;;;;;;;20.67;12.13;;;3.30;82.50;;;;;;5033851;28;20211;-68
2021/12/13 08:01:20;;;;;;;21.93;12.57;;;3.40;82.10;;;;;;5034727;28;20244;-68
2021/12/13 08:04:13;;;;;;;19.27;10.73;;;3.60;81.80;;;;;;5030961;28;20228;-68
2021/12/13 08:06:47;;;;;;;20.13;11.63;;;3.80;81.60;;;;;;5043053;28;20212;-68
2021/12/13 08:09:20;;;;;;;22.97;12.13;;;4.00;81.50;;;;;;5053592;28;20220;-68
2021/12/13 08:11:59;;;;;;;27.33;13.73;;;4.20;81.30;;;;;;5031783;28;20310;-68
2021/12/13 08:14:41;;;;;;;25.63;12.90;;;4.50;80.60;;;;;;5026660;28;20223;-68
2021/12/13 08:17:08;;;;;;;21.53;10.10;;;4.60;79.30;;;;;;5036271;28;20218;-68
2021/12/13 08:19:36;;;;;;;23.03;8.33;;;4.80;79.00;;;;;;5050438;28;20212;-68
2021/12/13 08:22:10;;;;;;;13.67;8.07;;;5.00;77.30;;;;;;5048649;28;20663;-68
2021/12/13 08:24:45;;;;;;;10.50;7.77;;;5.10;75.40;;;;;;5038334;28;20233;-68
2021/12/13 08:27:21;;;;;;;10.77;7.53;;;5.20;74.70;;;;;;5024891;28;20240;-68
2021/12/13 08:29:50;;;;;;;14.17;8.00;;;5.30;74.80;;;;;;5013337;28;20600;-68
2021/12/13 08:32:23;;;;;;;14.73;8.03;;;5.40;75.10;;;;;;5018037;28;20273;-68
2021/12/13 08:34:55;;;;;;;17.00;8.73;;;5.50;75.20;;;;;;5024171;28;20217;-71
2021/12/13 08:37:30;;;;;;;10.30;8.47;;;5.60;75.20;;;;;;5007246;28;20595;-71
2021/12/13 08:40:16;;;;;;;11.13;8.67;;;5.60;75.10;;;;;;5027063;28;20630;-71
2021/12/13 08:42:46;;;;;;;11.33;9.10;;;5.70;75.00;;;;;;5003307;28;20274;-71
2021/12/13 08:45:26;;;;;;;15.40;10.10;;;5.80;74.90;;;;;;5023947;28;20237;-71
2021/12/13 08:48:00;;;;;;;14.40;10.37;;;5.90;74.70;;;;;;5028375;28;20220;-70
2021/12/13 08:50:34;;;;;;;16.70;9.37;;;5.90;74.40;;;;;;5025881;28;20219;-71
2021/12/13 08:53:35;;;;;;;13.80;9.50;;;6.00;74.10;;;;;;5027827;28;20216;-71
2021/12/13 08:56:21;;;;;;;14.60;9.87;;;6.10;73.60;;;;;;5006514;28;20609;-70
2021/12/13 08:58:54;;;;;;;14.47;10.43;;;6.10;71.00;;;;;;5006994;28;20219;-71
2021/12/13 09:01:22;;;;;;;14.17;9.67;;;6.10;70.90;;;;;;5032920;28;20553;-70
2021/12/13 09:03:52;;;;;;;14.03;11.50;;;6.20;71.30;;;;;;5009262;28;20662;-70
2021/12/13 09:06:26;;;;;;;16.67;10.97;;;6.30;71.50;;;;;;5007030;28;20209;-71
2021/12/13 09:09:06;;;;;;;13.87;10.63;;;6.40;72.00;;;;;;5014311;28;20237;-71
2021/12/13 09:11:33;;;;;;;15.17;10.63;;;6.50;72.10;;;;;;4998243;28;20214;-71
2021/12/13 09:14:14;;;;;;;18.07;10.40;;;6.50;71.90;;;;;;5005355;28;20268;-71
2021/12/13 09:16:42;;;;;;;19.30;10.53;;;6.60;71.30;;;;;;5006038;28;20220;-71
2021/12/13 09:19:18;;;;;;;18.60;12.73;;;6.70;71.50;;;;;;5023752;28;20246;-71
2021/12/13 09:21:54;;;;;;;20.90;10.97;;;6.70;71.60;;;;;;5016021;28;20219;-71
2021/12/13 09:24:42;;;;;;;16.17;11.20;;;6.80;71.50;;;;;;5019551;28;20230;-71
2021/12/13 09:27:18;;;;;;;16.53;11.17;;;6.90;71.20;;;;;;5019935;28;20619;-72
2021/12/13 09:29:53;;;;;;;15.17;10.53;;;6.90;70.80;;;;;;4986592;28;20312;-72
2021/12/13 09:32:24;;;;;;;17.23;10.33;;;7.00;70.50;;;;;;5014864;28;20630;-72
2021/12/13 09:35:12;;;;;;;14.00;10.33;;;7.10;70.00;;;;;;5041295;28;20228;-72
2021/12/13 09:37:40;;;;;;;13.43;10.20;;;7.10;69.80;;;;;;5039865;28;20218;-72
2021/12/13 09:40:08;;;;;;;16.57;10.60;;;7.20;70.00;;;;;;5025196;28;20685;-72
2021/12/13 09:42:52;;;;;;;10.97;9.03;;;7.40;70.20;;;;;;5036920;28;20248;-72
2021/12/13 09:45:37;;;;;;;14.57;10.40;;;7.50;70.20;;;;;;5046768;28;20241;-72
2021/12/13 09:48:22;;;;;;;13.37;10.37;;;7.60;70.20;;;;;;5026109;28;20207;-72
2021/12/13 09:50:54;;;;;;;16.67;10.57;;;7.80;70.40;;;;;;5030394;28;20295;-72
2021/12/13 09:53:26;;;;;;;13.23;10.20;;;7.90;70.10;;;;;;5026376;28;20215;-72
2021/12/13 09:55:54;;;;;;;15.37;10.40;;;8.10;69.90;;;;;;5029583;28;20222;-73
2021/12/13 09:58:32;;;;;;;14.93;10.83;;;8.20;69.90;;;;;;5023445;28;20242;-72
2021/12/13 10:01:20;;;;;;;16.10;11.17;;;8.30;69.70;;;;;;5020455;28;20606;-72
2021/12/13 10:03:50;;;;;;;15.60;10.93;;;8.40;69.70;;;;;;5035695;28;20230;-72
2021/12/13 10:06:32;;;;;;;13.53;10.00;;;8.50;69.60;;;;;;5048137;28;20217;-72
2021/12/13 10:09:21;;;;;;;15.20;10.73;;;8.60;69.80;;;;;;5045658;28;20297;-72
2021/12/13 10:12:09;;;;;;;13.43;9.90;;;8.70;69.80;;;;;;5037676;28;20215;-72
2021/12/13 10:14:41;;;;;;;15.37;10.60;;;8.90;69.40;;;;;;5023418;28;20215;-72
2021/12/13 10:17:14;;;;;;;12.50;10.00;;;8.90;68.80;;;;;;5026091;28;20220;-72
2021/12/13 10:19:46;;;;;;;13.87;10.17;;;9.00;68.90;;;;;;5030807;28;20250;-72
2021/12/13 10:22:18;;;;;;;15.77;11.40;;;9.00;69.00;;;;;;5021788;28;20726;-72
2021/12/13 10:24:58;;;;;;;13.20;10.47;;;9.00;68.90;;;;;;5004821;28;20583;-72
2021/12/13 10:27:26;;;;;;;13.23;9.67;;;9.00;68.90;;;;;;5038198;28;20216;-72
2021/12/13 10:29:57;;;;;;;11.90;9.57;;;8.90;69.10;;;;;;5045587;28;20222;-72
2021/12/13 10:32:31;;;;;;;15.23;9.73;;;8.90;68.60;;;;;;5044581;28;20256;-72
2021/12/13 10:35:05;;;;;;;11.63;9.43;;;8.80;68.10;;;;;;5037496;28;20221;-72
2021/12/13 10:37:39;;;;;;;12.00;10.43;;;8.70;68.30;;;;;;5049913;28;20198;-72
2021/12/13 10:40:22;;;;;;;12.60;9.50;;;8.70;69.00;;;;;;5044470;28;20300;-72
2021/12/13 10:42:58;;;;;;;11.40;9.07;;;8.60;69.40;;;;;;5037878;28;20214;-72
2021/12/13 10:45:30;;;;;;;13.23;9.40;;;8.60;69.60;;;;;;5037767;28;20242;-72
2021/12/13 10:48:04;;;;;;;10.67;8.70;;;8.50;69.80;;;;;;5029900;28;20639;-72
2021/12/13 10:50:40;;;;;;;13.03;8.63;;;8.50;69.80;;;;;;5027273;28;20548;-72
2021/12/13 10:53:11;;;;;;;14.93;9.20;;;8.40;69.60;;;;;;5051582;28;20695;-72
2021/12/13 10:55:44;;;;;;;11.13;8.37;;;8.40;69.70;;;;;;5040048;28;20221;-72
2021/12/13 10:58:34;;;;;;;12.77;8.63;;;8.30;69.90;;;;;;5028297;28;20218;-72
2021/12/13 11:01:11;;;;;;;11.77;9.17;;;8.30;70.20;;;;;;5035822;28;20220;-72
2021/12/13 11:03:40;;;;;;;11.27;8.13;;;8.30;70.50;;;;;;5022813;28;20210;-72
2021/12/13 11:06:11;;;;;;;12.57;9.13;;;8.40;70.70;;;;;;5020377;28;20215;-72
2021/12/13 11:08:41;;;;;;;11.17;8.80;;;8.50;70.80;;;;;;5025355;28;20313;-72
2021/12/13 11:11:20;;;;;;;14.30;9.20;;;8.60;70.80;;;;;;5047687;28;20218;-72
2021/12/13 11:13:51;;;;;;;12.60;8.83;;;8.80;70.40;;;;;;5037645;28;20226;-71
2021/12/13 11:16:24;;;;;;;14.30;11.10;;;9.00;69.80;;;;;;5034623;28;20218;-71
2021/12/13 11:18:52;;;;;;;14.80;11.27;;;9.10;69.30;;;;;;5043334;28;20210;-71
2021/12/13 11:21:31;;;;;;;15.40;11.47;;;9.20;68.60;;;;;;5035798;28;20226;-72
2021/12/13 11:24:04;;;;;;;18.27;13.10;;;9.30;67.70;;;;;;5036132;28;20762;-71
2021/12/13 11:26:38;;;;;;;16.57;12.97;;;9.40;67.60;;;;;;5044862;28;20219;-71
2021/12/13 11:29:07;;;;;;;16.13;12.53;;;9.40;68.10;;;;;;5027838;28;20234;-72
2021/12/13 11:31:53;;;;;;;17.53;12.30;;;9.50;68.10;;;;;;5026789;28;20249;-72
2021/12/13 11:34:51;;;;;;;18.50;13.53;;;9.60;67.80;;;;;;5034033;28;20276;-71
2021/12/13 11:37:48;;;;;;;19.27;14.57;;;9.60;67.90;;;;;;5046393;28;20611;-72
2021/12/13 11:40:32;;;;;;;18.97;14.03;;;9.60;67.80;;;;;;5026906;28;20225;-72
2021/12/13 11:43:36;;;;;;;22.07;15.80;;;9.50;67.30;;;;;;5042200;28;20219;-72
2021/12/13 11:46:07;;;;;;;20.93;14.00;;;9.50;67.50;;;;;;5042057;28;20227;-71
2021/12/13 11:48:53;;;;;;;20.67;15.97;;;9.40;67.40;;;;;;5045597;28;20593;-71
2021/12/13 11:52:07;;;;;;;23.60;17.03;;;9.40;67.60;;;;;;5035561;28;20253;-72
2021/12/13 11:54:59;;;;;;;21.30;15.23;;;9.40;67.50;;;;;;4974718;28;20587;-72
2021/12/13 11:57:48;;;;;;;22.20;16.33;;;9.40;67.60;;;;;;5041249;28;20640;-72
2021/12/13 12:00:36;;;;;;;23.40;17.67;;;9.50;66.90;;;;;;5042197;28;20318;-72
2021/12/13 12:03:48;;;;;;;21.60;16.03;;;9.50;66.70;;;;;;5038490;28;20806;-72
2021/12/13 12:06:37;;;;;;;20.80;15.90;;;9.50;66.60;;;;;;5033606;28;20233;-73
2021/12/13 12:09:55;;;;;;;20.50;15.73;;;9.40;66.90;;;;;;5046013;28;20221;-73
2021/12/13 12:12:57;;;;;;;22.50;16.83;;;9.50;67.90;;;;;;5018151;28;20224;-71
2021/12/13 12:15:27;;;;;;;18.93;15.60;;;9.60;67.80;;;;;;5031321;28;20287;-72
2021/12/13 12:17:58;;;;;;;16.60;13.57;;;9.70;67.70;;;;;;5026921;28;20260;-72
2021/12/13 12:20:31;;;;;;;25.17;17.00;;;9.80;67.50;;;;;;5028996;28;20218;-72
2021/12/13 12:23:08;;;;;;;22.33;16.20;;;9.90;67.30;;;;;;5043018;28;20211;-72
2021/12/13 12:25:39;;;;;;;23.73;16.33;;;10.00;67.20;;;;;;5046359;28;20230;-72
2021/12/13 12:28:14;;;;;;;18.87;14.57;;;10.10;66.70;;;;;;5036535;28;20233;-72
2021/12/13 12:30:46;;;;;;;19.87;15.23;;;10.20;66.10;;;;;;4998734;28;20230;-71
2021/12/13 12:33:23;;;;;;;22.67;15.93;;;10.30;66.00;;;;;;5035767;28;20219;-71
2021/12/13 12:35:53;;;;;;;17.50;14.23;;;10.40;65.60;;;;;;5021808;28;20212;-71
2021/12/13 12:38:49;;;;;;;18.67;14.67;;;10.50;65.40;;;;;;5040588;28;20219;-72
2021/12/13 12:41:38;;;;;;;18.23;14.17;;;10.50;65.10;;;;;;5028665;28;20213;-72
2021/12/13 12:44:07;;;;;;;21.03;15.00;;;10.60;64.90;;;;;;5026562;28;20222;-72
2021/12/13 12:46:41;;;;;;;22.77;16.03;;;10.60;65.00;;;;;;5041452;28;20302;-71
2021/12/13 12:49:34;;;;;;;20.47;14.83;;;10.50;64.60;;;;;;5038651;28;20219;-72
2021/12/13 12:52:08;;;;;;;22.43;14.93;;;10.30;64.90;;;;;;5025422;28;20211;-72
2021/12/13 12:54:37;;;;;;;19.37;15.53;;;10.20;65.20;;;;;;5045151;28;20306;-71
2021/12/13 12:57:05;;;;;;;21.90;14.20;;;10.00;65.50;;;;;;5031712;28;20235;-72
2021/12/13 12:59:43;;;;;;;20.37;13.77;;;10.00;66.00;;;;;;5034848;28;20525;-73
2021/12/13 13:02:16;;;;;;;21.87;15.10;;;10.00;66.50;;;;;;5027963;28;20218;-72
2021/12/13 13:04:53;;;;;;;18.17;13.93;;;10.10;66.40;;;;;;5040660;28;20299;-72
2021/12/13 13:07:29;;;;;;;20.93;15.43;;;10.20;66.40;;;;;;5024401;28;20212;-73
2021/12/13 13:10:19;;;;;;;22.97;15.57;;;10.30;66.40;;;;;;5032904;28;20243;-73
2021/12/13 13:12:48;;;;;;;18.67;13.90;;;10.30;66.30;;;;;;5033898;28;20226;-72
2021/12/13 13:15:26;;;;;;;19.83;13.90;;;10.40;65.90;;;;;;5042734;28;20220;-73
2021/12/13 13:18:04;;;;;;;21.93;15.43;;;10.40;65.40;;;;;;5037678;28;20543;-73
2021/12/13 13:20:40;;;;;;;18.73;15.87;;;10.50;65.10;;;;;;5038213;28;20267;-73
2021/12/13 13:23:09;;;;;;;19.37;15.60;;;10.50;64.80;;;;;;5040646;28;20664;-73
2021/12/13 13:25:52;;;;;;;23.00;16.80;;;10.40;64.60;;;;;;5024248;28;20242;-73
2021/12/13 13:28:37;;;;;;;21.37;15.70;;;10.30;64.80;;;;;;5039048;28;20306;-73
2021/12/13 13:31:29;;;;;;;21.23;15.10;;;10.20;65.20;;;;;;5013484;28;20253;-72
2021/12/13 13:34:01;;;;;;;18.87;14.47;;;10.10;65.60;;;;;;5046876;28;20308;-73
2021/12/13 13:36:51;;;;;;;20.63;15.30;;;9.90;65.90;;;;;;5025395;28;20226;-72
2021/12/13 13:39:30;;;;;;;18.93;14.03;;;9.80;66.30;;;;;;5050940;28;20239;-72
2021/12/13 13:42:19;;;;;;;19.20;14.03;;;9.80;66.70;;;;;;5055666;28;20257;-72
2021/12/13 13:44:51;;;;;;;22.27;14.10;;;9.80;67.00;;;;;;5031266;28;20301;-72
2021/12/13 13:47:25;;;;;;;19.97;14.43;;;9.80;66.80;;;;;;5047856;28;20712;-72